createdAt,value
2022-08-16T00:08:37.886Z,10.7
2022-08-16T00:23:55.746Z,13.2
2022-08-16T00:39:05.669Z,10.5
2022-08-16T00:54:22.503Z,10.5
2022-08-16T01:09:37.670Z,12.3
2022-08-16T01:24:56.265Z,14
2022-08-16T01:40:08.212Z,12.8
2022-08-16T01:55:22.294Z,13.6
2022-08-16T02:10:34.268Z,13.7
2022-08-16T02:25:57.605Z,15.8
2022-08-16T02:41:12.377Z,10.7
2022-08-16T02:56:32.763Z,10.6
2022-08-16T03:11:47.316Z,12.2
2022-08-16T03:26:59.190Z,11.1
2022-08-16T03:42:09.911Z,13.7
2022-08-16T03:57:21.291Z,14.7
2022-08-16T04:13:02.359Z,17.9
2022-08-16T04:29:24.329Z,12.5
2022-08-16T04:44:56.328Z,13.2
2022-08-16T05:00:36.027Z,11.8
2022-08-16T05:15:50.084Z,13.2
2022-08-16T05:31:07.073Z,11.9
2022-08-16T05:46:32.026Z,11.6
2022-08-16T06:01:41.650Z,12.4
2022-08-16T06:16:55.448Z,10.3
2022-08-16T06:32:33.248Z,6.9
2022-08-16T06:47:57.283Z,5.4
2022-08-16T07:03:57.157Z,6.6
2022-08-16T07:19:08.934Z,6.3
2022-08-16T07:34:37.636Z,6.4
2022-08-16T07:49:58.935Z,10
2022-08-16T08:05:08.291Z,6.3
2022-08-16T08:20:28.794Z,6
2022-08-16T08:35:38.711Z,6
2022-08-16T08:50:51.138Z,6.9
2022-08-16T09:06:00.962Z,6.7
2022-08-16T09:21:10.075Z,6.7
2022-08-16T09:36:34.561Z,6.5
2022-08-16T09:51:44.415Z,7
2022-08-16T10:22:13.256Z,8.4
2022-08-16T10:37:36.811Z,5.1
2022-08-16T10:52:59.277Z,6.7
2022-08-16T11:08:10.911Z,5.6
2022-08-16T11:23:26.211Z,5.8
2022-08-16T11:38:58.882Z,5.3
2022-08-16T11:54:36.255Z,7.1
2022-08-16T12:09:48.904Z,7.2
2022-08-16T12:25:15.419Z,5.5
2022-08-16T12:40:30.431Z,5.4
2022-08-16T12:55:44.094Z,5.7
2022-08-16T13:11:00.091Z,6.7
2022-08-16T13:26:09.073Z,7.4
2022-08-16T13:41:19.396Z,5.2
2022-08-16T13:56:40.629Z,5.2
2022-08-16T14:11:53.937Z,4.8
2022-08-16T14:27:09.397Z,5
2022-08-16T14:42:21.238Z,5.4
2022-08-16T14:57:32.437Z,4.5
2022-08-16T15:12:45.741Z,4.5
2022-08-16T15:27:57.066Z,5.6
2022-08-16T15:43:07.358Z,6.3
2022-08-16T15:58:39.046Z,6.2
2022-08-16T16:13:52.124Z,4.9
2022-08-16T16:29:16.065Z,3.9
2022-08-16T16:44:37.581Z,4.4
2022-08-16T17:00:38.964Z,4.9
2022-08-16T17:16:02.501Z,4.6
2022-08-16T17:31:21.933Z,9.4
2022-08-16T17:46:53.444Z,7.4
2022-08-16T18:02:45.122Z,5.8
2022-08-16T18:17:55.107Z,6.1
2022-08-16T18:33:04.086Z,9.2
2022-08-16T18:48:13.521Z,7.2
2022-08-16T19:03:58.069Z,7.3
2022-08-16T19:19:09.359Z,10.5
2022-08-16T19:34:18.353Z,5.9
2022-08-16T19:49:27.661Z,6.2
2022-08-16T20:04:36.338Z,7
2022-08-16T20:19:45.985Z,8
2022-08-16T20:34:57.554Z,10.1
2022-08-16T20:50:06.785Z,7.3
2022-08-16T21:05:16.203Z,7.5
2022-08-16T21:20:25.716Z,8.4
2022-08-16T21:35:35.015Z,6.9
2022-08-16T21:50:44.541Z,7.7
2022-08-16T22:06:14.989Z,8.9
2022-08-16T22:21:24.399Z,11.1
2022-08-16T22:36:33.801Z,8.3
2022-08-16T22:51:43.201Z,8.4
2022-08-16T23:06:52.766Z,8.5
2022-08-16T23:22:02.382Z,9.8
2022-08-16T23:37:13.511Z,10.7
2022-08-16T23:52:56.068Z,8.9
